Terminal Aerodrome Forecast
Issued by NWS

Home | Current Version | Previous Version | Text Only | Print | Product List | Glossary On
Versions: 1 2 3 4 5 6 7 8 9 10 11 12 13 14 15 16 17
000
FTUS45 KRIW 192027 AAB
TAFPNA
TAF AMD
KPNA 192027Z 1920/2018 30005KT 2SM -SN SCT012 OVC020
     FM200300 VRB05KT 1SM -SN BR SCT010 OVC015
     FM200700 VRB05KT 1SM -SN BR SCT008 OVC012
     FM201500 30005KT 5SM -SN SCT015 BKN035
      AMD LTD TO CLD VIS AND WIND=

USA.gov is the U.S. government's official web portal to all federal, state and local government web resources and services.